Time;durP1;ratioP1;P1;durP2;ratioP2;P2;SDS_P1;SDS_P2;PMS_P1;PMS_P2;Temp;Humidity;BMP_temperature;BMP_pressure;BME280_temperature;BME280_humidity;BME280_pressure;Samples;Min_cycle;Max_cycle;Signal;HPM_P1;HPM_P2
2022/08/06 00:00:42;;;;;;;0.60;0.40;;;16.00;99.90;;;;;;4969542;28;20058;-79
2022/08/06 00:03:08;;;;;;;0.88;0.52;;;16.00;99.90;;;;;;4982849;28;20056;-78
2022/08/06 00:05:34;;;;;;;0.35;0.35;;;16.00;99.90;;;;;;4983428;28;20569;-79
2022/08/06 00:08:00;;;;;;;1.25;0.50;;;16.00;99.90;;;;;;4982896;28;20062;-79
2022/08/06 00:10:26;;;;;;;0.88;0.45;;;16.00;99.90;;;;;;4998455;28;20199;-79
2022/08/06 00:12:52;;;;;;;0.85;0.40;;;16.10;99.90;;;;;;4966062;28;20733;-80
2022/08/06 00:15:18;;;;;;;2.40;0.50;;;16.10;99.90;;;;;;4981601;28;20111;-79
2022/08/06 00:17:45;;;;;;;3.97;0.50;;;16.10;99.90;;;;;;4983289;28;20050;-79
2022/08/06 00:20:13;;;;;;;0.75;0.40;;;16.10;99.90;;;;;;4984531;28;20060;-79
2022/08/06 00:22:38;;;;;;;2.50;0.57;;;16.10;99.90;;;;;;4979710;28;20054;-79
2022/08/06 00:25:05;;;;;;;2.50;0.50;;;16.10;99.90;;;;;;4972238;28;20057;-79
2022/08/06 00:27:31;;;;;;;0.70;0.45;;;16.20;99.90;;;;;;4998786;28;20057;-79
2022/08/06 00:29:56;;;;;;;2.35;0.52;;;16.10;99.90;;;;;;4967404;28;20044;-79
2022/08/06 00:32:22;;;;;;;2.00;0.50;;;16.10;99.90;;;;;;4982468;28;20947;-79
2022/08/06 00:34:48;;;;;;;3.70;0.50;;;16.10;99.90;;;;;;4982614;28;20179;-80
2022/08/06 00:37:13;;;;;;;0.80;0.40;;;16.10;99.90;;;;;;4986507;28;20052;-79
2022/08/06 00:39:39;;;;;;;1.23;0.45;;;16.10;99.90;;;;;;4982618;28;20049;-80
2022/08/06 00:42:05;;;;;;;0.82;0.50;;;16.10;99.90;;;;;;4986496;28;20261;-79
2022/08/06 00:44:31;;;;;;;1.65;0.60;;;16.00;99.90;;;;;;4982345;28;20056;-79
2022/08/06 00:46:59;;;;;;;1.33;0.60;;;16.00;99.90;;;;;;4998185;28;20080;-79
2022/08/06 00:49:24;;;;;;;1.60;0.57;;;16.00;99.90;;;;;;4988716;28;20782;-79
2022/08/06 00:51:50;;;;;;;2.88;0.57;;;16.00;99.90;;;;;;4984524;28;20085;-79
2022/08/06 00:54:16;;;;;;;3.05;0.80;;;16.00;99.90;;;;;;4986869;28;20050;-79
2022/08/06 00:56:42;;;;;;;1.10;0.60;;;16.10;99.90;;;;;;5005711;28;20057;-79
2022/08/06 00:59:08;;;;;;;1.30;0.50;;;16.10;99.90;;;;;;4993615;28;20069;-78
2022/08/06 01:01:34;;;;;;;1.92;0.60;;;16.10;99.90;;;;;;4974113;28;20048;-80
2022/08/06 01:04:00;;;;;;;3.78;0.80;;;16.10;99.90;;;;;;4976514;28;20049;-79
2022/08/06 01:06:25;;;;;;;0.90;0.60;;;16.10;99.90;;;;;;4997090;28;20049;-79
2022/08/06 01:08:51;;;;;;;1.75;0.57;;;16.10;99.90;;;;;;4968560;28;20084;-80
2022/08/06 01:11:17;;;;;;;1.92;0.60;;;16.20;99.90;;;;;;4985944;28;20084;-80
2022/08/06 01:13:43;;;;;;;2.60;0.50;;;16.20;99.90;;;;;;4996030;28;20046;-79
2022/08/06 01:16:24;;;;;;;3.80;0.55;;;16.20;99.90;;;;;;4987518;28;20483;-79
2022/08/06 01:19:24;;;;;;;1.05;0.55;;;16.20;99.90;;;;;;4996093;28;20049;-79
2022/08/06 01:22:15;;;;;;;2.05;0.60;;;16.20;99.90;;;;;;4998622;28;20112;-79
2022/08/06 01:25:24;;;;;;;2.25;0.60;;;16.20;99.90;;;;;;4996654;28;20060;-79
2022/08/06 01:27:49;;;;;;;1.85;0.85;;;16.20;99.90;;;;;;4986578;28;20057;-80
2022/08/06 01:30:19;;;;;;;2.08;0.70;;;16.20;99.90;;;;;;4985373;28;20430;-79
2022/08/06 01:32:53;;;;;;;1.60;0.75;;;16.20;99.90;;;;;;4984212;28;20072;-80
2022/08/06 01:35:29;;;;;;;1.55;0.50;;;16.20;99.90;;;;;;4984870;28;20136;-79
2022/08/06 01:38:03;;;;;;;1.77;0.60;;;16.20;99.90;;;;;;4996826;28;20053;-80
2022/08/06 01:40:35;;;;;;;1.33;0.65;;;16.20;99.90;;;;;;4983701;28;20045;-79
2022/08/06 01:43:03;;;;;;;1.48;0.68;;;16.20;99.90;;;;;;4985831;28;20050;-79
2022/08/06 01:45:32;;;;;;;0.80;0.50;;;16.20;99.90;;;;;;4976164;28;20133;-79
2022/08/06 01:48:03;;;;;;;1.55;0.40;;;16.20;99.90;;;;;;4990616;28;20049;-79
2022/08/06 01:50:37;;;;;;;2.95;0.60;;;16.20;99.90;;;;;;4983584;28;20467;-79
2022/08/06 01:53:06;;;;;;;2.47;1.08;;;16.20;99.90;;;;;;4991665;28;20132;-79
2022/08/06 01:55:36;;;;;;;2.15;0.70;;;16.20;99.90;;;;;;4981473;28;20050;-79
2022/08/06 01:58:04;;;;;;;2.63;0.70;;;16.20;99.90;;;;;;4982537;28;20078;-80
2022/08/06 02:00:32;;;;;;;1.33;0.52;;;16.30;99.90;;;;;;4981705;28;20037;-79
2022/08/06 02:03:07;;;;;;;2.17;0.70;;;16.20;99.90;;;;;;4967502;28;20045;-80
2022/08/06 02:05:34;;;;;;;3.25;0.77;;;16.30;99.90;;;;;;4978478;28;20053;-80
2022/08/06 02:08:02;;;;;;;2.58;0.60;;;16.30;99.90;;;;;;4999970;28;20089;-80
2022/08/06 02:10:32;;;;;;;3.58;0.90;;;16.30;99.90;;;;;;4993584;28;20038;-78
2022/08/06 02:13:01;;;;;;;4.57;0.90;;;16.30;99.90;;;;;;4991885;28;20111;-80
2022/08/06 02:15:28;;;;;;;2.60;0.80;;;16.30;99.90;;;;;;4976959;28;20038;-78
2022/08/06 02:17:57;;;;;;;1.98;0.80;;;16.30;99.90;;;;;;4993384;28;20128;-78
2022/08/06 02:20:28;;;;;;;2.70;0.90;;;16.20;99.90;;;;;;4991281;28;20134;-79
2022/08/06 02:22:56;;;;;;;3.22;0.88;;;16.20;99.90;;;;;;4977515;28;20125;-79
2022/08/06 02:25:23;;;;;;;1.30;0.70;;;16.20;99.90;;;;;;4991509;28;20061;-79
2022/08/06 02:27:51;;;;;;;1.85;0.80;;;16.10;99.90;;;;;;4993240;28;20149;-79
2022/08/06 02:30:17;;;;;;;2.33;0.82;;;16.00;99.90;;;;;;4980108;28;20046;-78
2022/08/06 02:32:44;;;;;;;2.75;0.77;;;15.90;99.90;;;;;;4977665;28;20060;-79
2022/08/06 02:35:10;;;;;;;1.67;0.90;;;15.90;99.90;;;;;;4943650;28;20078;-78
2022/08/06 02:37:52;;;;;;;3.88;1.10;;;15.80;99.90;;;;;;4977978;28;20053;-78
2022/08/06 02:40:24;;;;;;;3.60;1.02;;;15.70;99.90;;;;;;4977295;28;20522;-78
2022/08/06 02:43:14;;;;;;;2.20;0.70;;;15.70;99.90;;;;;;4993642;28;20046;-79
2022/08/06 02:45:53;;;;;;;3.20;0.77;;;15.60;99.90;;;;;;4994849;28;20526;-78
2022/08/06 02:48:26;;;;;;;2.13;0.57;;;15.60;99.90;;;;;;4981283;28;20084;-78
2022/08/06 02:50:53;;;;;;;1.48;0.70;;;15.50;99.90;;;;;;5008103;28;20171;-78
2022/08/06 02:53:26;;;;;;;2.15;0.88;;;15.50;99.90;;;;;;4980086;28;20096;-78
2022/08/06 02:56:08;;;;;;;3.70;0.90;;;15.50;99.90;;;;;;4997276;28;20042;-78
2022/08/06 02:58:43;;;;;;;3.25;1.27;;;15.50;99.90;;;;;;4997426;28;20054;-78
2022/08/06 03:01:13;;;;;;;4.60;0.80;;;15.50;99.90;;;;;;4996746;28;20054;-81
2022/08/06 03:03:43;;;;;;;3.08;0.88;;;15.50;99.90;;;;;;4998738;28;20586;-80
2022/08/06 03:06:12;;;;;;;2.15;0.88;;;15.50;99.90;;;;;;4994485;28;20046;-79
2022/08/06 03:08:38;;;;;;;3.85;0.82;;;15.50;99.90;;;;;;4982352;28;20049;-79
2022/08/06 03:11:05;;;;;;;2.28;0.75;;;15.50;99.90;;;;;;4985366;28;20100;-79
2022/08/06 03:13:32;;;;;;;2.38;0.60;;;15.60;99.90;;;;;;4996393;28;20487;-79
2022/08/06 03:15:59;;;;;;;2.75;0.80;;;15.60;99.90;;;;;;4972608;28;20125;-78
2022/08/06 03:18:27;;;;;;;3.60;0.98;;;15.60;99.90;;;;;;4980981;28;20503;-78
2022/08/06 03:20:53;;;;;;;2.60;0.75;;;15.60;99.90;;;;;;4997246;28;20079;-78
2022/08/06 03:23:20;;;;;;;3.92;0.88;;;15.60;99.90;;;;;;4979989;28;20042;-78
2022/08/06 03:25:46;;;;;;;1.30;0.60;;;15.60;99.90;;;;;;4965473;28;20046;-78
2022/08/06 03:28:14;;;;;;;2.70;0.95;;;15.60;99.90;;;;;;4994611;28;20100;-78
2022/08/06 03:30:41;;;;;;;2.13;0.90;;;15.60;99.90;;;;;;4978742;28;20053;-79
2022/08/06 03:33:13;;;;;;;3.33;0.70;;;15.50;99.90;;;;;;4981617;28;20050;-78
2022/08/06 03:35:39;;;;;;;1.25;0.60;;;15.50;99.90;;;;;;4994699;28;20053;-78
2022/08/06 03:38:09;;;;;;;2.60;0.70;;;15.50;99.90;;;;;;4977917;28;20124;-79
2022/08/06 03:40:38;;;;;;;3.60;0.82;;;15.50;99.90;;;;;;4995594;28;20056;-79
2022/08/06 03:43:05;;;;;;;2.42;0.70;;;15.50;99.90;;;;;;4977378;28;20054;-79
2022/08/06 03:45:35;;;;;;;3.72;0.80;;;15.50;99.90;;;;;;4969793;28;20081;-79
2022/08/06 03:48:04;;;;;;;2.22;0.73;;;15.50;99.90;;;;;;4994641;28;20057;-79
2022/08/06 03:50:34;;;;;;;2.55;0.77;;;15.40;99.90;;;;;;4993892;28;20137;-79
2022/08/06 03:53:04;;;;;;;3.08;0.77;;;15.40;99.90;;;;;;4978870;28;20054;-79
2022/08/06 03:55:34;;;;;;;2.70;0.77;;;15.40;99.90;;;;;;4994734;28;20080;-79
2022/08/06 03:58:04;;;;;;;1.55;0.70;;;15.40;99.90;;;;;;5012611;28;20046;-79
2022/08/06 04:00:35;;;;;;;2.17;0.80;;;15.40;99.90;;;;;;4997050;28;20125;-79
2022/08/06 04:03:03;;;;;;;1.80;0.75;;;15.40;99.90;;;;;;4986603;28;20057;-79
2022/08/06 04:05:31;;;;;;;1.70;0.52;;;15.30;99.90;;;;;;4978607;28;20458;-79
2022/08/06 04:08:03;;;;;;;3.35;1.08;;;15.40;99.90;;;;;;4995280;28;20049;-79
2022/08/06 04:10:50;;;;;;;1.58;0.73;;;15.40;99.90;;;;;;4996368;28;20107;-78
2022/08/06 04:13:18;;;;;;;4.38;0.82;;;15.40;99.90;;;;;;4980912;28;20077;-79
2022/08/06 04:15:45;;;;;;;3.20;0.70;;;15.40;99.90;;;;;;5013561;28;20053;-79
2022/08/06 04:18:19;;;;;;;2.58;0.80;;;15.40;99.90;;;;;;4995710;28;20068;-78
2022/08/06 04:20:47;;;;;;;2.47;0.77;;;15.40;99.90;;;;;;4995046;28;20080;-80
2022/08/06 04:23:14;;;;;;;3.83;0.75;;;15.40;99.90;;;;;;4994798;28;20077;-79
2022/08/06 04:25:44;;;;;;;2.33;0.70;;;15.40;99.90;;;;;;5000633;28;20049;-78
2022/08/06 04:28:12;;;;;;;3.85;0.90;;;15.40;99.90;;;;;;5011329;28;20050;-79
2022/08/06 04:30:39;;;;;;;1.80;0.82;;;15.30;99.90;;;;;;4979903;28;20499;-79
2022/08/06 04:33:08;;;;;;;3.13;0.80;;;15.40;99.90;;;;;;4997065;28;21003;-78
2022/08/06 04:35:38;;;;;;;3.15;0.80;;;15.40;99.90;;;;;;4984952;28;20110;-79
2022/08/06 04:38:05;;;;;;;2.92;0.93;;;15.40;99.90;;;;;;4976066;28;20042;-78
2022/08/06 04:40:31;;;;;;;3.10;0.80;;;15.50;99.90;;;;;;4976880;28;20538;-79
2022/08/06 04:42:57;;;;;;;1.60;1.10;;;15.50;99.90;;;;;;4995449;28;20065;-79
2022/08/06 04:45:24;;;;;;;2.65;0.88;;;15.50;99.90;;;;;;4982855;28;20054;-79
2022/08/06 04:47:50;;;;;;;7.88;0.98;;;15.40;99.90;;;;;;4982527;28;20053;-78
2022/08/06 04:50:16;;;;;;;2.15;1.10;;;15.50;99.90;;;;;;4985078;28;20129;-79
2022/08/06 04:52:42;;;;;;;4.22;1.10;;;15.50;99.90;;;;;;4981481;28;20101;-79
2022/08/06 04:55:08;;;;;;;1.77;0.90;;;15.40;99.90;;;;;;4997928;28;20128;-79
2022/08/06 04:57:34;;;;;;;1.90;1.00;;;15.50;99.90;;;;;;4981665;28;20309;-79
2022/08/06 04:59:59;;;;;;;2.80;1.00;;;15.50;99.90;;;;;;4968163;28;20168;-79
2022/08/06 05:02:25;;;;;;;4.10;1.13;;;15.50;99.90;;;;;;4965198;28;20069;-79
2022/08/06 05:04:55;;;;;;;3.70;1.13;;;15.50;99.90;;;;;;4981139;28;20091;-79
2022/08/06 05:07:28;;;;;;;2.42;1.00;;;15.50;99.90;;;;;;4982201;28;20049;-78
2022/08/06 05:09:58;;;;;;;2.40;1.20;;;15.50;99.90;;;;;;4987467;28;20041;-79
2022/08/06 05:12:36;;;;;;;3.65;1.10;;;15.50;99.90;;;;;;4996075;28;20086;-79
2022/08/06 05:15:16;;;;;;;4.25;1.40;;;15.50;99.90;;;;;;5013520;28;20057;-78
2022/08/06 05:17:48;;;;;;;3.83;1.45;;;15.50;99.90;;;;;;4999107;28;20045;-79
2022/08/06 05:20:19;;;;;;;4.32;1.23;;;15.60;99.90;;;;;;4996340;28;20115;-80
2022/08/06 05:22:47;;;;;;;3.58;1.50;;;15.60;99.90;;;;;;4997090;28;20049;-79
2022/08/06 05:25:14;;;;;;;4.75;1.42;;;15.70;99.90;;;;;;4980969;28;20060;-79
2022/08/06 05:27:40;;;;;;;3.20;1.10;;;15.70;99.90;;;;;;4996539;28;20547;-79
2022/08/06 05:30:07;;;;;;;3.22;1.35;;;15.70;99.90;;;;;;4995051;28;20048;-80
2022/08/06 05:32:48;;;;;;;4.53;1.60;;;15.70;99.90;;;;;;5001301;28;20045;-79
2022/08/06 05:35:14;;;;;;;2.78;1.50;;;15.70;99.90;;;;;;4981849;28;20117;-80
2022/08/06 05:37:40;;;;;;;3.03;1.45;;;15.70;99.90;;;;;;4995679;28;20105;-79
2022/08/06 05:40:07;;;;;;;2.95;1.20;;;15.70;99.90;;;;;;4984292;28;20052;-79
2022/08/06 05:42:34;;;;;;;4.18;1.40;;;15.70;99.90;;;;;;4985446;28;20058;-80
2022/08/06 05:45:00;;;;;;;3.63;1.35;;;15.70;99.90;;;;;;4980091;28;20046;-80
2022/08/06 05:47:31;;;;;;;3.08;1.40;;;15.70;99.90;;;;;;4994218;28;20116;-79
2022/08/06 05:50:07;;;;;;;2.30;1.30;;;15.70;99.90;;;;;;4996416;28;20041;-79
2022/08/06 05:52:51;;;;;;;2.40;1.40;;;15.70;99.90;;;;;;5001339;28;20073;-80
2022/08/06 05:55:52;;;;;;;3.08;1.60;;;15.80;99.90;;;;;;5000422;28;20056;-80
2022/08/06 05:58:24;;;;;;;3.38;1.80;;;15.80;99.90;;;;;;4959079;28;20061;-78
2022/08/06 06:00:51;;;;;;;2.70;1.77;;;16.00;99.90;;;;;;5001468;28;20096;-77
2022/08/06 06:03:19;;;;;;;3.65;1.50;;;16.00;99.90;;;;;;4994970;28;20046;-79
2022/08/06 06:05:45;;;;;;;3.00;1.60;;;16.10;99.90;;;;;;4982190;28;20064;-80
2022/08/06 06:08:11;;;;;;;5.72;1.45;;;16.20;99.90;;;;;;4987170;28;20061;-79
2022/08/06 06:10:39;;;;;;;3.80;1.50;;;16.30;99.90;;;;;;4963436;28;20092;-79
2022/08/06 06:13:06;;;;;;;2.30;1.40;;;16.40;99.90;;;;;;4982597;28;20058;-78
2022/08/06 06:15:40;;;;;;;3.20;1.50;;;16.50;99.90;;;;;;4995414;28;20050;-79
2022/08/06 06:18:21;;;;;;;1.88;1.38;;;16.60;99.90;;;;;;4998257;28;20554;-79
2022/08/06 06:21:02;;;;;;;3.05;1.23;;;16.60;99.90;;;;;;4991676;28;20065;-78
2022/08/06 06:23:38;;;;;;;2.47;1.25;;;16.70;99.90;;;;;;5005939;28;20061;-79
2022/08/06 06:26:21;;;;;;;2.08;1.15;;;16.80;99.90;;;;;;4993178;28;20057;-79
2022/08/06 06:28:55;;;;;;;3.83;1.30;;;16.90;99.90;;;;;;4999985;28;20454;-79
2022/08/06 06:31:47;;;;;;;3.28;1.20;;;17.00;99.90;;;;;;4989786;28;20047;-80
2022/08/06 06:34:19;;;;;;;3.08;1.10;;;17.00;99.90;;;;;;4985314;28;20405;-79
2022/08/06 06:37:01;;;;;;;2.50;1.10;;;17.10;99.90;;;;;;5003144;28;20053;-79
2022/08/06 06:40:01;;;;;;;3.25;1.25;;;17.20;99.90;;;;;;5001456;28;20072;-81
2022/08/06 06:42:43;;;;;;;1.73;1.08;;;17.30;99.90;;;;;;5000834;28;20045;-80
2022/08/06 06:45:30;;;;;;;5.38;1.33;;;17.50;99.90;;;;;;5001006;28;20048;-79
2022/08/06 06:48:02;;;;;;;1.95;1.10;;;17.50;99.90;;;;;;4999613;28;20497;-78
2022/08/06 06:50:32;;;;;;;3.10;1.05;;;17.70;99.90;;;;;;4987759;28;20041;-81
2022/08/06 06:52:58;;;;;;;2.15;1.00;;;17.70;99.90;;;;;;5000723;28;20104;-82
2022/08/06 06:55:34;;;;;;;3.08;1.20;;;17.80;99.90;;;;;;4969365;28;20108;-82
2022/08/06 06:58:16;;;;;;;2.78;1.17;;;17.90;99.90;;;;;;5018330;28;20053;-81
2022/08/06 07:00:43;;;;;;;4.70;1.20;;;18.10;99.90;;;;;;5000138;28;20054;-82
2022/08/06 07:03:11;;;;;;;2.70;1.20;;;18.10;99.90;;;;;;4970743;28;20483;-81
2022/08/06 07:05:43;;;;;;;4.63;1.30;;;18.30;99.90;;;;;;5001559;28;20053;-82
2022/08/06 07:08:11;;;;;;;3.25;1.30;;;18.40;99.90;;;;;;5001837;28;20056;-81
2022/08/06 07:10:39;;;;;;;2.42;1.40;;;18.50;99.90;;;;;;4985058;28;20042;-82
2022/08/06 07:13:07;;;;;;;4.05;1.40;;;18.60;99.90;;;;;;4989317;28;20129;-80
2022/08/06 07:15:34;;;;;;;2.72;1.20;;;18.70;99.90;;;;;;5000947;28;20128;-80
2022/08/06 07:18:03;;;;;;;4.10;1.30;;;18.80;99.90;;;;;;4978263;28;20056;-82
2022/08/06 07:20:30;;;;;;;3.25;1.40;;;18.90;99.90;;;;;;4985713;28;20045;-81
2022/08/06 07:22:59;;;;;;;4.50;1.63;;;19.10;99.90;;;;;;4987753;28;20133;-80
2022/08/06 07:25:26;;;;;;;2.67;1.25;;;19.20;99.90;;;;;;5001834;28;20050;-82
2022/08/06 07:27:52;;;;;;;2.58;1.40;;;19.30;99.90;;;;;;4951867;28;20053;-82
2022/08/06 07:30:20;;;;;;;2.60;1.10;;;19.40;99.90;;;;;;4988359;28;20053;-81
2022/08/06 07:32:47;;;;;;;2.28;1.10;;;19.40;99.90;;;;;;4973933;28;20050;-81
2022/08/06 07:35:14;;;;;;;2.28;1.30;;;19.60;99.90;;;;;;4999895;28;20053;-82
2022/08/06 07:37:57;;;;;;;1.98;1.00;;;19.70;99.90;;;;;;4989277;28;20199;-82
2022/08/06 07:40:53;;;;;;;2.88;1.25;;;19.80;99.90;;;;;;4984058;28;20042;-83
2022/08/06 07:43:19;;;;;;;3.70;1.10;;;20.00;99.90;;;;;;4987376;28;20062;-80
2022/08/06 07:45:46;;;;;;;2.22;1.15;;;20.00;99.90;;;;;;5003747;28;20054;-79
2022/08/06 07:48:14;;;;;;;2.97;1.00;;;19.70;99.90;;;;;;5004471;28;20054;-80
2022/08/06 07:50:44;;;;;;;1.92;0.98;;;19.80;99.90;;;;;;4991876;28;20050;-79
2022/08/06 07:53:11;;;;;;;2.30;1.08;;;20.00;99.90;;;;;;5016108;28;20045;-80
2022/08/06 07:55:38;;;;;;;3.65;1.10;;;20.20;99.90;;;;;;4984293;28;20072;-80
2022/08/06 07:58:06;;;;;;;1.52;1.00;;;20.40;99.90;;;;;;4986553;28;20526;-81
2022/08/06 08:00:32;;;;;;;3.22;1.13;;;20.60;99.90;;;;;;4999904;28;20095;-80
2022/08/06 08:08:29;;;;;;;3.38;1.00;;;21.20;99.90;;;;;;5002919;28;20465;-81
2022/08/06 08:10:56;;;;;;;2.20;1.20;;;21.10;99.90;;;;;;4961755;28;20041;-81
2022/08/06 08:13:26;;;;;;;3.72;1.38;;;21.10;99.90;;;;;;4993402;28;20076;-80
2022/08/06 08:15:55;;;;;;;2.58;1.10;;;21.10;99.90;;;;;;5018062;28;20573;-79
2022/08/06 08:18:27;;;;;;;2.45;1.10;;;21.00;99.90;;;;;;5003031;28;20050;-78
2022/08/06 08:20:56;;;;;;;2.00;0.90;;;20.90;99.90;;;;;;4993917;28;20053;-78
2022/08/06 08:23:23;;;;;;;4.43;1.00;;;20.60;99.90;;;;;;4969044;28;20137;-79
2022/08/06 08:25:49;;;;;;;2.40;0.95;;;20.50;99.90;;;;;;4982374;28;20117;-79
2022/08/06 08:28:14;;;;;;;2.30;1.00;;;20.30;99.90;;;;;;4992445;28;20663;-79
2022/08/06 08:30:42;;;;;;;3.92;1.00;;;20.10;99.90;;;;;;4969280;28;20038;-80
2022/08/06 08:33:09;;;;;;;1.67;1.00;;;20.10;99.90;;;;;;5006352;28;20041;-79
2022/08/06 08:35:35;;;;;;;3.88;1.00;;;20.30;99.90;;;;;;4990579;28;20060;-79
2022/08/06 08:38:00;;;;;;;1.65;0.85;;;20.70;99.90;;;;;;4976043;28;20049;-79
2022/08/06 08:40:27;;;;;;;2.50;1.00;;;21.10;99.90;;;;;;4969814;28;20038;-79
2022/08/06 08:42:57;;;;;;;1.83;1.00;;;21.10;99.90;;;;;;4976197;28;20053;-79
2022/08/06 08:45:25;;;;;;;2.38;1.17;;;21.40;99.70;;;;;;4983453;28;20091;-80
2022/08/06 08:47:53;;;;;;;2.15;1.00;;;21.60;99.70;;;;;;4975728;28;20390;-79
2022/08/06 08:50:21;;;;;;;3.45;1.10;;;22.00;99.80;;;;;;4966098;28;20042;-80
2022/08/06 08:52:50;;;;;;;1.77;1.02;;;22.20;99.50;;;;;;4973853;28;20058;-82
2022/08/06 08:55:21;;;;;;;2.65;1.10;;;22.40;99.30;;;;;;4999822;28;20145;-81
2022/08/06 08:57:48;;;;;;;2.33;1.05;;;22.60;99.30;;;;;;4999931;28;20136;-81
2022/08/06 09:00:14;;;;;;;2.08;0.90;;;22.60;98.80;;;;;;4969528;28;20059;-82
2022/08/06 09:02:41;;;;;;;2.40;1.33;;;22.80;98.50;;;;;;4968760;28;20145;-83
2022/08/06 09:05:07;;;;;;;2.65;1.00;;;22.90;98.70;;;;;;4970859;28;20046;-81
2022/08/06 09:07:33;;;;;;;1.80;1.00;;;23.10;98.00;;;;;;5010875;28;20108;-81
2022/08/06 09:10:00;;;;;;;2.42;1.20;;;23.20;98.10;;;;;;4966949;28;20506;-81
2022/08/06 09:12:25;;;;;;;2.13;0.98;;;23.30;98.20;;;;;;5014535;28;20123;-81
2022/08/06 09:14:51;;;;;;;3.45;1.40;;;23.00;98.80;;;;;;4983090;28;20250;-82
2022/08/06 09:17:17;;;;;;;3.08;1.30;;;23.00;99.10;;;;;;4989381;28;20045;-81
2022/08/06 09:19:44;;;;;;;2.30;1.10;;;23.10;99.00;;;;;;4988280;28;20069;-82
2022/08/06 09:22:10;;;;;;;3.47;1.17;;;23.50;98.90;;;;;;4989372;28;20061;-83
2022/08/06 09:24:37;;;;;;;3.30;1.25;;;24.20;98.50;;;;;;4999277;28;20131;-85
2022/08/06 09:27:08;;;;;;;2.72;1.30;;;23.60;97.80;;;;;;4987869;28;20487;-80
2022/08/06 09:29:35;;;;;;;2.55;0.98;;;23.70;97.30;;;;;;4985190;28;20061;-83
2022/08/06 09:32:04;;;;;;;2.70;1.05;;;24.00;97.20;;;;;;4988730;28;20113;-84
2022/08/06 09:34:38;;;;;;;2.15;1.00;;;24.20;96.60;;;;;;4983439;28;20041;-82
2022/08/06 09:37:05;;;;;;;1.50;0.90;;;24.40;95.80;;;;;;4996291;28;20096;-82
2022/08/06 09:39:40;;;;;;;2.35;1.00;;;24.50;95.60;;;;;;5002216;28;20042;-79
2022/08/06 09:42:07;;;;;;;1.70;1.10;;;24.60;94.90;;;;;;4982881;28;20042;-79
2022/08/06 09:44:33;;;;;;;2.30;1.08;;;24.80;94.80;;;;;;4985514;28;20076;-81
2022/08/06 09:47:00;;;;;;;1.27;0.75;;;25.00;94.30;;;;;;4980406;28;20161;-80
2022/08/06 09:49:27;;;;;;;2.28;1.00;;;25.20;93.60;;;;;;4986649;28;20073;-80
2022/08/06 09:52:11;;;;;;;5.07;1.05;;;25.20;92.90;;;;;;4998723;28;20041;-80
2022/08/06 09:54:38;;;;;;;2.47;1.08;;;25.30;92.60;;;;;;4985287;28;20049;-82
2022/08/06 09:57:04;;;;;;;3.60;1.00;;;25.40;92.50;;;;;;5006529;28;20048;-80
2022/08/06 09:59:44;;;;;;;1.85;1.00;;;25.40;91.90;;;;;;5007328;28;20549;-79
2022/08/06 10:02:33;;;;;;;2.28;1.02;;;25.70;91.30;;;;;;5005275;28;20168;-79
2022/08/06 10:05:11;;;;;;;1.58;0.93;;;25.80;89.50;;;;;;4989103;28;20050;-79
2022/08/06 10:07:37;;;;;;;1.80;0.95;;;26.00;89.00;;;;;;4988297;28;20360;-80
2022/08/06 10:10:05;;;;;;;1.65;1.00;;;26.00;90.70;;;;;;5003060;28;20486;-79
2022/08/06 10:12:31;;;;;;;2.28;1.30;;;26.10;90.20;;;;;;4988844;28;20134;-80
2022/08/06 10:14:56;;;;;;;1.73;0.90;;;26.00;88.90;;;;;;4985953;28;20346;-80
2022/08/06 10:17:23;;;;;;;2.05;1.17;;;26.00;88.40;;;;;;4988610;28;20045;-81
2022/08/06 10:20:10;;;;;;;1.88;1.10;;;25.80;87.60;;;;;;4993044;28;20484;-79
2022/08/06 10:22:54;;;;;;;3.00;1.08;;;25.70;84.30;;;;;;5000006;28;20103;-82
2022/08/06 10:25:22;;;;;;;2.35;1.00;;;25.80;84.90;;;;;;5000811;28;20053;-82
2022/08/06 10:27:49;;;;;;;2.67;1.27;;;25.90;87.10;;;;;;5005003;28;20124;-82
2022/08/06 10:30:15;;;;;;;1.45;1.02;;;26.10;86.30;;;;;;4974564;28;20052;-81
2022/08/06 10:32:47;;;;;;;1.70;1.17;;;26.10;84.90;;;;;;4983260;28;20046;-83
2022/08/06 10:35:16;;;;;;;2.60;1.23;;;26.00;80.20;;;;;;4995654;28;20114;-81
2022/08/06 10:37:45;;;;;;;1.67;1.00;;;26.10;82.50;;;;;;4989858;28;20049;-81
2022/08/06 10:40:14;;;;;;;2.50;1.25;;;26.00;81.00;;;;;;5000278;28;20164;-82
2022/08/06 10:42:40;;;;;;;2.60;1.48;;;26.30;80.70;;;;;;4998603;28;20053;-81
2022/08/06 10:45:09;;;;;;;2.90;1.20;;;26.40;80.70;;;;;;4976697;28;20053;-80
2022/08/06 10:47:35;;;;;;;2.13;1.27;;;26.70;79.80;;;;;;4987204;28;21097;-81
2022/08/06 10:50:02;;;;;;;1.63;1.10;;;26.80;78.70;;;;;;4990581;28;20111;-79
2022/08/06 10:52:28;;;;;;;1.80;1.10;;;26.80;77.50;;;;;;4970577;28;20048;-80
2022/08/06 10:54:56;;;;;;;2.25;1.20;;;26.70;77.60;;;;;;4987374;28;20057;-79
2022/08/06 10:57:22;;;;;;;3.70;1.30;;;26.80;77.20;;;;;;4991409;28;20497;-75
2022/08/06 10:59:48;;;;;;;1.85;1.00;;;26.70;76.80;;;;;;4990666;28;20038;-79
2022/08/06 11:02:44;;;;;;;2.25;1.30;;;26.70;76.70;;;;;;4991007;28;20048;-79
2022/08/06 11:05:15;;;;;;;3.00;1.13;;;26.60;76.00;;;;;;4986727;28;20140;-78
2022/08/06 11:08:05;;;;;;;2.55;1.30;;;26.50;76.90;;;;;;5006687;28;20052;-78
2022/08/06 11:10:58;;;;;;;2.65;1.27;;;26.50;75.80;;;;;;5008488;28;20037;-81
2022/08/06 11:13:23;;;;;;;3.83;1.35;;;26.60;75.50;;;;;;4995607;28;20045;-80
2022/08/06 11:15:51;;;;;;;2.05;1.20;;;26.80;77.10;;;;;;5007554;28;20395;-81
2022/08/06 11:18:17;;;;;;;2.08;1.10;;;27.00;76.50;;;;;;4978361;28;20050;-82
2022/08/06 11:20:45;;;;;;;1.60;1.20;;;27.10;75.70;;;;;;4992919;28;20045;-81
2022/08/06 11:23:11;;;;;;;1.45;1.05;;;26.90;74.80;;;;;;5019142;28;20077;-83
2022/08/06 11:25:41;;;;;;;2.30;1.23;;;27.00;75.40;;;;;;5007419;28;20069;-85
2022/08/06 11:28:11;;;;;;;1.95;1.13;;;26.90;75.20;;;;;;5004603;28;22164;-83
2022/08/06 11:30:53;;;;;;;2.38;1.52;;;27.00;74.00;;;;;;4993232;28;20045;-81
2022/08/06 11:33:35;;;;;;;1.80;1.20;;;27.00;74.30;;;;;;4994625;28;20053;-82
2022/08/06 11:36:05;;;;;;;2.42;1.33;;;27.00;74.80;;;;;;4986811;28;20053;-83
2022/08/06 11:38:50;;;;;;;2.10;1.30;;;27.00;74.10;;;;;;4996060;28;20044;-84
2022/08/06 11:41:22;;;;;;;2.10;1.23;;;27.00;72.80;;;;;;5006630;28;20057;-82
2022/08/06 11:43:51;;;;;;;1.60;1.10;;;27.20;74.40;;;;;;5005470;28;20049;-82
2022/08/06 11:46:34;;;;;;;1.98;1.02;;;27.30;73.40;;;;;;5001699;28;20061;-82
2022/08/06 11:49:02;;;;;;;2.22;1.25;;;27.30;71.00;;;;;;4990541;28;20050;-81
2022/08/06 11:51:37;;;;;;;2.25;1.13;;;27.00;72.50;;;;;;4995242;28;20039;-82
2022/08/06 11:54:12;;;;;;;2.60;1.15;;;26.60;71.80;;;;;;4989291;28;20061;-81
2022/08/06 11:57:06;;;;;;;1.92;1.17;;;26.70;73.10;;;;;;4992488;28;20056;-82
2022/08/06 11:59:36;;;;;;;2.47;1.10;;;26.90;72.00;;;;;;5006764;28;20391;-83
2022/08/06 12:02:12;;;;;;;2.47;1.33;;;27.30;73.00;;;;;;4987045;28;20049;-88
2022/08/06 12:04:39;;;;;;;2.08;1.20;;;27.30;72.50;;;;;;5004528;28;20113;-82
2022/08/06 12:07:17;;;;;;;2.13;1.10;;;27.00;72.50;;;;;;4989574;28;20123;-82
2022/08/06 12:09:45;;;;;;;3.08;1.45;;;27.30;73.40;;;;;;4994532;28;20049;-82
2022/08/06 12:12:29;;;;;;;4.32;1.20;;;27.70;73.10;;;;;;5002826;28;20053;-82
2022/08/06 12:15:03;;;;;;;2.38;1.17;;;27.80;71.80;;;;;;4988978;28;20590;-82
2022/08/06 12:17:30;;;;;;;2.10;1.20;;;27.60;71.10;;;;;;5003898;28;20042;-81
2022/08/06 12:20:02;;;;;;;4.43;1.38;;;27.40;71.30;;;;;;5004549;28;20132;-81
2022/08/06 12:22:31;;;;;;;2.63;1.20;;;27.30;71.50;;;;;;5011391;28;20050;-82
2022/08/06 12:24:59;;;;;;;3.05;1.10;;;27.50;72.00;;;;;;5003730;28;20052;-81
2022/08/06 12:27:33;;;;;;;1.58;1.10;;;27.50;71.50;;;;;;5004521;28;20087;-81
2022/08/06 12:30:01;;;;;;;1.92;1.10;;;27.70;70.70;;;;;;5012963;28;20048;-81
2022/08/06 12:32:39;;;;;;;2.70;1.20;;;27.50;70.40;;;;;;4990053;28;20095;-81
2022/08/06 12:35:10;;;;;;;1.63;1.20;;;27.50;70.10;;;;;;4989941;28;20077;-80
2022/08/06 12:37:41;;;;;;;2.10;0.90;;;27.20;69.90;;;;;;4987825;28;20132;-81
2022/08/06 12:40:28;;;;;;;2.30;1.30;;;27.20;70.70;;;;;;4989490;28;20056;-81
2022/08/06 12:42:55;;;;;;;2.35;1.10;;;27.40;70.90;;;;;;5002719;28;20103;-82
2022/08/06 12:45:28;;;;;;;2.10;1.30;;;27.50;70.70;;;;;;5002864;28;20068;-81
2022/08/06 12:48:04;;;;;;;2.08;1.30;;;27.70;70.70;;;;;;5007554;28;20088;-80
2022/08/06 12:50:41;;;;;;;1.48;0.95;;;27.90;70.00;;;;;;5005080;28;20073;-81
2022/08/06 12:53:12;;;;;;;2.80;1.35;;;28.20;70.40;;;;;;4989116;28;20058;-81
2022/08/06 12:55:45;;;;;;;2.45;1.20;;;28.50;69.60;;;;;;4988220;28;20050;-81
2022/08/06 12:58:12;;;;;;;1.10;0.82;;;28.50;68.70;;;;;;5003673;28;20045;-81
2022/08/06 13:00:41;;;;;;;2.17;0.90;;;28.10;69.30;;;;;;4992283;28;20076;-81
2022/08/06 13:03:08;;;;;;;2.17;1.20;;;28.10;69.40;;;;;;4987734;28;20140;-81
2022/08/06 13:05:34;;;;;;;1.92;1.10;;;27.90;69.20;;;;;;4986553;28;20053;-80
2022/08/06 13:08:01;;;;;;;1.52;1.05;;;28.00;69.80;;;;;;5017453;28;20506;-79
2022/08/06 13:10:28;;;;;;;3.00;1.33;;;27.70;69.60;;;;;;5001528;28;20128;-80